Flight Track Log - Related Links

Times and Time Zones

All times are in EDT time to prevent confusion due to time zone crossing. See the CMP237 flight status page for this flight to view local times or setup timezone preferences in your user account.

Time Position Orientation Groundspeed Altitude Reporting Facility
EDT Latitude Longitude Course Direction KTS MPH feet Rate Location/Type
Thu 12:29:56 PM 25.8006 -80.2583 117° Southeast 587 676 800  Level Miami Center
Thu 12:31:04 PM 25.7747 -80.2022 125° Southeast 241 277 2,400 1,907 Climbing Miami Center
Thu 12:32:05 PM 25.7344 -80.1389 176° South 257 296 4,900 2,000 Climbing Miami Center
Thu 12:33:25 PM 25.6489 -80.1319 169° South 277 319 7,100 1,931 Climbing Miami Center
Thu 12:37:25 PM 25.3017 -80.0561 161° South 340 391 15,200 2,100 Climbing Miami Center
Thu 12:38:25 PM 25.2022 -80.0189 159° South 362 417 17,600 2,200 Climbing Miami Center
Thu 12:39:25 PM 25.1028 -79.9775 161° South 375 432 19,600 1,800 Climbing Miami Center
Thu 12:40:25 PM 24.9972 -79.9381 161° South 388 447 21,200 1,700 Climbing Miami Center
Thu 12:41:25 PM 24.8872 -79.8964 160° South 407 468 23,000 1,750 Climbing Miami Center
Thu 12:42:25 PM 24.7733 -79.8500 162° South 420 483 24,700 1,400 Climbing Miami Center
Thu 12:43:25 PM 24.6572 -79.8083 161° South 428 493 25,800 1,200 Climbing Miami Center
Thu 12:44:25 PM 24.5328 -79.7619 160° South 450 518 27,100 1,400 Climbing Miami Center
Thu 12:45:25 PM 24.4103 -79.7136 160° South 462 532 28,600 1,250 Climbing Miami Center
Thu 12:46:25 PM 24.2839 -79.6628 162° South 474 545 29,600 1,200 Climbing Miami Center
Thu 12:47:25 PM 24.1553 -79.6167 160° South 481 554 31,000 1,400 Climbing Miami Center
Thu 12:48:25 PM 24.0267 -79.5661 161° South 481 554 32,400 1,400 Climbing Miami Center
Thu 12:56:15 PM 23.1706 -79.2390 177° South  Level FlightAware Approximate
Thu 12:57:15 PM 23.0548 -79.2335 178° South  Level FlightAware Approximate
Thu 12:58:15 PM 22.9391 -79.2280 178° South  Level FlightAware Approximate
Thu 12:59:15 PM 22.8233 -79.2225 178° South  Level FlightAware Approximate
Thu 01:00:15 PM 22.7076 -79.2171 178° South  Level FlightAware Approximate
Thu 01:01:15 PM 22.5918 -79.2116 178° South  Level FlightAware Approximate
Thu 01:02:15 PM 22.4761 -79.2062 178° South  Level FlightAware Approximate
Thu 01:03:15 PM 22.3603 -79.2007 178° South  Level FlightAware Approximate
Thu 01:04:15 PM 22.2446 -79.1953 178° South  Level FlightAware Approximate
Thu 01:05:15 PM 22.1288 -79.1899 180° South  Level FlightAware Approximate
Thu 01:06:15 PM 22.0130 -79.1903 180° South  Level FlightAware Approximate
Thu 01:07:15 PM 21.8971 -79.1908 180° South  Level FlightAware Approximate
Thu 01:08:15 PM 21.7812 -79.1912 180° South  Level FlightAware Approximate
Thu 01:09:15 PM 21.6654 -79.1917 180° South  Level FlightAware Approximate
Thu 01:10:15 PM 21.5495 -79.1921 180° South  Level FlightAware Approximate
Thu 01:11:15 PM 21.4337 -79.1926 180° South  Level FlightAware Approximate
Thu 01:12:15 PM 21.3178 -79.1930 180° South  Level FlightAware Approximate
Thu 01:13:15 PM 21.2020 -79.1935 180° South  Level FlightAware Approximate
Thu 01:14:15 PM 21.0861 -79.1939 180° South  Level FlightAware Approximate
Thu 01:15:15 PM 20.9702 -79.1944 180° South  Level FlightAware Approximate
Thu 01:16:15 PM 20.8544 -79.1948 180° South  Level FlightAware Approximate
Thu 01:17:15 PM 20.7385 -79.1953 180° South  Level FlightAware Approximate
Thu 01:18:15 PM 20.6227 -79.1957 180° South  Level FlightAware Approximate
Thu 01:19:15 PM 20.5068 -79.1962 180° South  Level FlightAware Approximate
Thu 01:20:15 PM 20.3909 -79.1966 180° South  Level FlightAware Approximate
Thu 01:21:15 PM 20.2751 -79.1971 180° South  Level FlightAware Approximate
Thu 01:22:15 PM 20.1592 -79.1975 180° South  Level FlightAware Approximate
Thu 01:23:15 PM 20.0434 -79.1980 180° South  Level FlightAware Approximate
Thu 01:24:15 PM 19.9275 -79.1984 180° South  Level FlightAware Approximate
Thu 01:25:15 PM 19.8116 -79.1989 180° South  Level FlightAware Approximate
Thu 01:26:15 PM 19.6958 -79.1993 180° South  Level FlightAware Approximate
Thu 01:27:15 PM 19.5799 -79.1997 180° South  Level FlightAware Approximate
Thu 01:28:15 PM 19.4641 -79.2002 180° South  Level FlightAware Approximate
Thu 01:29:15 PM 19.3482 -79.2006 180° South  Level FlightAware Approximate
Thu 01:30:15 PM 19.2323 -79.2011 180° South  Level FlightAware Approximate
Thu 01:31:15 PM 19.1165 -79.2015 180° South  Level FlightAware Approximate
Thu 01:32:15 PM 19.0006 -79.2019 180° South  Level FlightAware Approximate
Thu 01:33:15 PM 18.8848 -79.2024 180° South  Level FlightAware Approximate
Thu 01:34:15 PM 18.7689 -79.2028 180° South  Level FlightAware Approximate
Thu 01:35:15 PM 18.6530 -79.2032 180° South  Level FlightAware Approximate
Thu 01:36:15 PM 18.5372 -79.2037 180° South  Level FlightAware Approximate
Thu 01:37:15 PM 18.4213 -79.2041 182° South  Level FlightAware Approximate
Thu 01:38:15 PM 18.3055 -79.2075 182° South  Level FlightAware Approximate
Thu 01:39:15 PM 18.1897 -79.2109 182° South  Level FlightAware Approximate
Thu 01:40:15 PM 18.0739 -79.2142 182° South  Level FlightAware Approximate
Thu 01:41:15 PM 17.9581 -79.2176 182° South  Level FlightAware Approximate
Thu 01:42:15 PM 17.8423 -79.2209 182° South  Level FlightAware Approximate
Thu 01:43:15 PM 17.7264 -79.2243 182° South  Level FlightAware Approximate
Thu 01:44:15 PM 17.6106 -79.2276 182° South  Level FlightAware Approximate
Thu 01:45:15 PM 17.4948 -79.2310 182° South  Level FlightAware Approximate
Thu 01:46:15 PM 17.3790 -79.2343 182° South  Level FlightAware Approximate
Thu 01:47:15 PM 17.2632 -79.2377 182° South  Level FlightAware Approximate
Thu 01:48:15 PM 17.1474 -79.2410 182° South  Level FlightAware Approximate
Thu 01:49:15 PM 17.0315 -79.2443 182° South  Level FlightAware Approximate
Thu 01:50:15 PM 16.9157 -79.2477 182° South  Level FlightAware Approximate
Thu 01:51:15 PM 16.7999 -79.2510 182° South  Level FlightAware Approximate
Thu 01:52:15 PM 16.6841 -79.2543 182° South  Level FlightAware Approximate
Thu 01:53:15 PM 16.5683 -79.2576 182° South  Level FlightAware Approximate
Thu 01:54:15 PM 16.4525 -79.2609 182° South  Level FlightAware Approximate
Thu 01:55:15 PM 16.3366 -79.2642 182° South  Level FlightAware Approximate
Thu 01:56:15 PM 16.2208 -79.2675 182° South  Level FlightAware Approximate
Thu 01:57:15 PM 16.1050 -79.2708 182° South  Level FlightAware Approximate
Thu 01:58:15 PM 15.9892 -79.2741 182° South  Level FlightAware Approximate
Thu 01:59:15 PM 15.8734 -79.2774 182° South  Level FlightAware Approximate
Thu 02:00:15 PM 15.7575 -79.2807 182° South  Level FlightAware Approximate
Thu 02:01:15 PM 15.6417 -79.2840 182° South  Level FlightAware Approximate
Thu 02:02:15 PM 15.5259 -79.2872 182° South  Level FlightAware Approximate
Thu 02:03:15 PM 15.4101 -79.2905 182° South  Level FlightAware Approximate
Thu 02:04:15 PM 15.2943 -79.2938 182° South  Level FlightAware Approximate
Thu 02:05:15 PM 15.1784 -79.2970 182° South  Level FlightAware Approximate
Thu 02:06:15 PM 15.0626 -79.3003 134° Southeast  Level FlightAware Approximate
Thu 02:07:15 PM 14.9864 -79.2174 182° South  Level FlightAware Approximate
Thu 02:08:15 PM 14.8706 -79.2207 182° South  Level FlightAware Approximate
Thu 02:09:15 PM 14.7548 -79.2241 182° South  Level FlightAware Approximate
Thu 02:10:15 PM 14.6389 -79.2274 182° South  Level FlightAware Approximate
Thu 02:11:15 PM 14.5231 -79.2308 182° South  Level FlightAware Approximate
Thu 02:12:15 PM 14.4073 -79.2341 182° South  Level FlightAware Approximate
Thu 02:13:15 PM 14.2915 -79.2375 182° South  Level FlightAware Approximate
Thu 02:14:15 PM 14.1757 -79.2408 182° South  Level FlightAware Approximate
Thu 02:15:15 PM 14.0599 -79.2442 182° South  Level FlightAware Approximate
Thu 02:16:15 PM 13.9441 -79.2475 182° South  Level FlightAware Approximate
Thu 02:17:15 PM 13.8283 -79.2508 182° South  Level FlightAware Approximate
Thu 02:18:15 PM 13.7125 -79.2542 182° South  Level FlightAware Approximate
Thu 02:19:15 PM 13.5967 -79.2575 182° South  Level FlightAware Approximate
Thu 02:20:15 PM 13.4808 -79.2608 182° South  Level FlightAware Approximate
Thu 02:21:15 PM 13.3650 -79.2641 182° South  Level FlightAware Approximate
Thu 02:22:15 PM 13.2492 -79.2674 182° South  Level FlightAware Approximate
Thu 02:23:15 PM 13.1334 -79.2707 182° South  Level FlightAware Approximate
Thu 02:24:15 PM 13.0176 -79.2740 182° South  Level FlightAware Approximate
Thu 02:25:15 PM 12.9018 -79.2773 182° South  Level FlightAware Approximate
Thu 02:26:15 PM 12.7860 -79.2806 182° South  Level FlightAware Approximate
Thu 02:27:15 PM 12.6702 -79.2839 182° South  Level FlightAware Approximate
Thu 02:28:15 PM 12.5544 -79.2872 182° South  Level FlightAware Approximate
Thu 02:29:15 PM 12.4385 -79.2905 182° South  Level FlightAware Approximate
Thu 02:30:15 PM 12.3227 -79.2938 182° South  Level FlightAware Approximate
Thu 02:31:15 PM 12.2069 -79.2971 182° South  Level FlightAware Approximate
Thu 02:32:15 PM 12.0911 -79.3004 182° South  Level FlightAware Approximate
Thu 02:33:15 PM 11.9753 -79.3037 182° South  Level FlightAware Approximate
Thu 02:34:15 PM 11.8595 -79.3070 182° South  Level FlightAware Approximate
Thu 02:35:15 PM 11.7437 -79.3102 182° South  Level FlightAware Approximate
Thu 02:36:15 PM 11.6279 -79.3135 182° South  Level FlightAware Approximate
Thu 02:37:15 PM 11.5121 -79.3168 231° Southwest  Level FlightAware Approximate
Thu 02:38:15 PM 11.4442 -79.4017 180° South  Level FlightAware Approximate
Thu 02:39:15 PM 11.3284 -79.4008 180° South  Level FlightAware Approximate
Thu 02:40:15 PM 11.2125 -79.3999 180° South  Level FlightAware Approximate
Thu 02:41:15 PM 11.0967 -79.3989 197° South  Level FlightAware Approximate
Thu 02:42:15 PM 10.9892 -79.4333 184° South  Level FlightAware Approximate
Thu 02:43:15 PM 10.8738 -79.4418 184° South  Level FlightAware Approximate
Thu 02:44:15 PM 10.7584 -79.4500 180° South  Level FlightAware Approximate
Thu 02:45:15 PM 10.6426 -79.4508 177° South  Level FlightAware Approximate
Thu 02:46:15 PM 10.5268 -79.4456 186° South  Level FlightAware Approximate
Thu 02:47:15 PM 10.4186 -79.4565 175° South  Level FlightAware Approximate
Thu 02:48:15 PM 10.3033 -79.4459 177° South  Level FlightAware Approximate
Thu 02:49:15 PM 10.1876 -79.4397 177° South  Level FlightAware Approximate
Thu 02:50:15 PM 10.0719 -79.4335 177° South  Level FlightAware Approximate
Thu 02:51:15 PM 9.9562 -79.4273 175° South  Level FlightAware Approximate
Thu 02:52:15 PM 9.8409 -79.4167 177° South  Level FlightAware Approximate
Thu 02:53:15 PM 9.7251 -79.4112 180° South  Level FlightAware Approximate
Thu 02:54:15 PM 9.6098 -79.4110 177° South  Level FlightAware Approximate
Thu 02:55:15 PM 9.4942 -79.4043 174° South  Level FlightAware Approximate
Thu 02:56:15 PM 9.3791 -79.3912 176° South  Level FlightAware Approximate
Thu 02:57:15 PM 9.2636 -79.3833 180° South  Level FlightAware Approximate
Thu 02:58:15 PM 9.1477 -79.3833 169° South  Level FlightAware Approximate
Thu 02:59:15 PM 9.0667 -79.3667 286° West  Level FlightAware Approximate
Thu 03:00:15 PM 9.0982 -79.4796 106° East  Level Estimated
Thu 03:01:15 PM 9.0667 -79.3667 286° West  Level FlightAware Approximate
Thu 03:02:15 PM 9.0982 -79.4796 106° East  Level Estimated
Thu 03:03:15 PM 9.0667 -79.3667 286° West  Level FlightAware Approximate
Thu 03:04:15 PM 9.0982 -79.4796 286° West  Level Estimated

Login

Don't have an account? Register now (free) for customized features, flight alerts, and more!